Miami, Florida
Traffic Map
Current Weather Conditions
Miami, Florida
Few Clouds
Few Clouds
70°
Feels Like: 70°
Wind Chill: 70° Ceiling: Unl
Heat Index: 70° Visibility: 10mi
Dew Point: 32° Wind: 12mph
Humidity: 25% Direction: 280° (W)
Pressure: 29.99in Gusts: 0mph
Raw Report DataKMIA 272053Z 28010KT 10SM FEW030 FEW300 21/00 A2999 RMK AO2 SLP156 FU FEW030 T02110000 56019
Traffic Incident Summary
Active as of:
Severity:
Category:
InformationThere was an issue retrieving the traffic information for this location. Please try a different location or try again shortly.
Advertisements
Track Severe Weather on mobile